sensor_id;sensor_type;location;lat;lon;timestamp;P1;durP1;ratioP1;P2;durP2;ratioP2
52354;SDS011;38286;51.156;17.038;2023-04-06T02:26:22;105.97;;;39.00;;
52354;SDS011;38286;51.156;17.038;2023-04-06T02:28:48;115.75;;;43.88;;
52354;SDS011;38286;51.156;17.038;2023-04-06T02:31:14;111.82;;;43.92;;
52354;SDS011;38286;51.156;17.038;2023-04-06T02:33:40;126.93;;;47.47;;
52354;SDS011;38286;51.156;17.038;2023-04-06T02:36:06;114.53;;;45.90;;
52354;SDS011;38286;51.156;17.038;2023-04-06T02:38:33;120.53;;;46.88;;
52354;SDS011;38286;51.156;17.038;2023-04-06T02:40:58;114.82;;;45.53;;
52354;SDS011;38286;51.156;17.038;2023-04-06T02:43:25;112.22;;;45.15;;
52354;SDS011;38286;51.156;17.038;2023-04-06T02:45:50;121.22;;;46.35;;
52354;SDS011;38286;51.156;17.038;2023-04-06T02:48:17;121.95;;;45.45;;
52354;SDS011;38286;51.156;17.038;2023-04-06T02:50:42;115.60;;;44.10;;
52354;SDS011;38286;51.156;17.038;2023-04-06T02:53:09;116.15;;;45.13;;
52354;SDS011;38286;51.156;17.038;2023-04-06T02:55:35;114.95;;;45.60;;
52354;SDS011;38286;51.156;17.038;2023-04-06T02:58:01;111.47;;;44.58;;
52354;SDS011;38286;51.156;17.038;2023-04-06T03:00:26;108.53;;;43.17;;
52354;SDS011;38286;51.156;17.038;2023-04-06T03:02:53;115.65;;;45.83;;
52354;SDS011;38286;51.156;17.038;2023-04-06T03:05:18;106.65;;;42.13;;
52354;SDS011;38286;51.156;17.038;2023-04-06T03:07:45;106.15;;;41.45;;
52354;SDS011;38286;51.156;17.038;2023-04-06T03:10:11;103.82;;;42.10;;
52354;SDS011;38286;51.156;17.038;2023-04-06T03:12:37;106.70;;;43.75;;
52354;SDS011;38286;51.156;17.038;2023-04-06T03:15:03;109.65;;;42.47;;
52354;SDS011;38286;51.156;17.038;2023-04-06T03:17:29;102.63;;;40.67;;
52354;SDS011;38286;51.156;17.038;2023-04-06T03:19:55;106.85;;;41.13;;
52354;SDS011;38286;51.156;17.038;2023-04-06T03:22:21;102.78;;;41.15;;
52354;SDS011;38286;51.156;17.038;2023-04-06T03:24:47;95.10;;;39.90;;
52354;SDS011;38286;51.156;17.038;2023-04-06T03:27:13;102.35;;;41.22;;
52354;SDS011;38286;51.156;17.038;2023-04-06T03:29:39;99.43;;;40.33;;
52354;SDS011;38286;51.156;17.038;2023-04-06T03:32:05;98.47;;;41.72;;
52354;SDS011;38286;51.156;17.038;2023-04-06T03:34:31;101.38;;;41.08;;
52354;SDS011;38286;51.156;17.038;2023-04-06T03:36:57;97.88;;;39.03;;
52354;SDS011;38286;51.156;17.038;2023-04-06T03:39:23;101.38;;;39.25;;
52354;SDS011;38286;51.156;17.038;2023-04-06T03:41:49;97.75;;;39.55;;
52354;SDS011;38286;51.156;17.038;2023-04-06T03:44:15;98.30;;;39.13;;
52354;SDS011;38286;51.156;17.038;2023-04-06T03:46:42;98.00;;;40.13;;
52354;SDS011;38286;51.156;17.038;2023-04-06T03:49:08;93.03;;;37.42;;
52354;SDS011;38286;51.156;17.038;2023-04-06T03:51:34;93.20;;;39.05;;
52354;SDS011;38286;51.156;17.038;2023-04-06T03:54:00;103.72;;;39.47;;
52354;SDS011;38286;51.156;17.038;2023-04-06T03:56:26;90.32;;;39.08;;
52354;SDS011;38286;51.156;17.038;2023-04-06T03:58:52;98.07;;;39.03;;
52354;SDS011;38286;51.156;17.038;2023-04-06T04:01:36;100.63;;;39.75;;
52354;SDS011;38286;51.156;17.038;2023-04-06T04:04:02;98.10;;;38.53;;
52354;SDS011;38286;51.156;17.038;2023-04-06T04:06:28;102.43;;;38.80;;
52354;SDS011;38286;51.156;17.038;2023-04-06T04:08:55;95.72;;;40.47;;
52354;SDS011;38286;51.156;17.038;2023-04-06T04:11:21;103.43;;;40.03;;
52354;SDS011;38286;51.156;17.038;2023-04-06T04:13:47;100.55;;;41.25;;
52354;SDS011;38286;51.156;17.038;2023-04-06T04:16:13;91.63;;;39.47;;
52354;SDS011;38286;51.156;17.038;2023-04-06T04:18:40;103.93;;;39.03;;
52354;SDS011;38286;51.156;17.038;2023-04-06T04:21:06;95.00;;;41.28;;
52354;SDS011;38286;51.156;17.038;2023-04-06T04:23:32;103.18;;;41.83;;
52354;SDS011;38286;51.156;17.038;2023-04-06T04:25:58;104.07;;;41.42;;
52354;SDS011;38286;51.156;17.038;2023-04-06T04:28:23;99.18;;;39.45;;
52354;SDS011;38286;51.156;17.038;2023-04-06T04:30:50;109.80;;;40.50;;
52354;SDS011;38286;51.156;17.038;2023-04-06T04:33:15;98.22;;;40.40;;
52354;SDS011;38286;51.156;17.038;2023-04-06T04:35:41;100.03;;;38.45;;
52354;SDS011;38286;51.156;17.038;2023-04-06T04:38:07;93.78;;;40.17;;
52354;SDS011;38286;51.156;17.038;2023-04-06T04:40:33;97.15;;;38.38;;
52354;SDS011;38286;51.156;17.038;2023-04-06T04:42:59;96.38;;;40.70;;
52354;SDS011;38286;51.156;17.038;2023-04-06T04:45:25;104.72;;;41.80;;
52354;SDS011;38286;51.156;17.038;2023-04-06T04:47:51;95.75;;;39.75;;
52354;SDS011;38286;51.156;17.038;2023-04-06T04:50:17;102.22;;;40.20;;
52354;SDS011;38286;51.156;17.038;2023-04-06T04:52:43;116.32;;;42.83;;
52354;SDS011;38286;51.156;17.038;2023-04-06T04:55:09;100.88;;;39.97;;
52354;SDS011;38286;51.156;17.038;2023-04-06T04:57:35;101.07;;;40.40;;
52354;SDS011;38286;51.156;17.038;2023-04-06T05:00:01;99.88;;;39.72;;
52354;SDS011;38286;51.156;17.038;2023-04-06T05:02:28;106.25;;;41.90;;
52354;SDS011;38286;51.156;17.038;2023-04-06T05:04:54;118.28;;;43.20;;
52354;SDS011;38286;51.156;17.038;2023-04-06T05:07:20;110.82;;;42.13;;
52354;SDS011;38286;51.156;17.038;2023-04-06T05:09:46;113.78;;;43.05;;
52354;SDS011;38286;51.156;17.038;2023-04-06T05:12:12;109.38;;;43.35;;
52354;SDS011;38286;51.156;17.038;2023-04-06T05:14:39;115.55;;;44.80;;
52354;SDS011;38286;51.156;17.038;2023-04-06T05:17:05;110.35;;;43.22;;
52354;SDS011;38286;51.156;17.038;2023-04-06T05:19:31;112.40;;;44.83;;
52354;SDS011;38286;51.156;17.038;2023-04-06T05:21:57;125.00;;;46.78;;
52354;SDS011;38286;51.156;17.038;2023-04-06T05:24:23;128.57;;;46.90;;
52354;SDS011;38286;51.156;17.038;2023-04-06T05:26:49;141.07;;;53.08;;
52354;SDS011;38286;51.156;17.038;2023-04-06T05:29:16;152.50;;;53.67;;
52354;SDS011;38286;51.156;17.038;2023-04-06T05:31:42;146.68;;;56.50;;
52354;SDS011;38286;51.156;17.038;2023-04-06T05:34:08;134.93;;;52.35;;
52354;SDS011;38286;51.156;17.038;2023-04-06T05:36:35;115.70;;;46.97;;
52354;SDS011;38286;51.156;17.038;2023-04-06T05:39:01;118.45;;;46.55;;
52354;SDS011;38286;51.156;17.038;2023-04-06T05:41:27;125.68;;;47.97;;
52354;SDS011;38286;51.156;17.038;2023-04-06T05:43:53;121.30;;;46.58;;
52354;SDS011;38286;51.156;17.038;2023-04-06T05:46:19;119.22;;;48.08;;
52354;SDS011;38286;51.156;17.038;2023-04-06T05:48:45;118.90;;;47.22;;
52354;SDS011;38286;51.156;17.038;2023-04-06T05:51:11;117.85;;;48.67;;
52354;SDS011;38286;51.156;17.038;2023-04-06T05:53:37;110.53;;;42.95;;
52354;SDS011;38286;51.156;17.038;2023-04-06T05:56:04;118.93;;;46.17;;
52354;SDS011;38286;51.156;17.038;2023-04-06T05:58:31;125.40;;;47.75;;
52354;SDS011;38286;51.156;17.038;2023-04-06T06:00:57;113.75;;;45.95;;
52354;SDS011;38286;51.156;17.038;2023-04-06T06:03:24;115.30;;;45.97;;
52354;SDS011;38286;51.156;17.038;2023-04-06T06:05:49;111.55;;;44.15;;
52354;SDS011;38286;51.156;17.038;2023-04-06T06:08:16;114.32;;;44.03;;
52354;SDS011;38286;51.156;17.038;2023-04-06T06:10:41;112.93;;;44.67;;
52354;SDS011;38286;51.156;17.038;2023-04-06T06:13:08;99.55;;;42.17;;
52354;SDS011;38286;51.156;17.038;2023-04-06T06:15:34;86.80;;;38.58;;
52354;SDS011;38286;51.156;17.038;2023-04-06T06:18:00;89.13;;;39.42;;
52354;SDS011;38286;51.156;17.038;2023-04-06T06:20:27;81.63;;;36.88;;
52354;SDS011;38286;51.156;17.038;2023-04-06T06:22:53;85.13;;;35.13;;
52354;SDS011;38286;51.156;17.038;2023-04-06T06:25:19;71.40;;;33.42;;
52354;SDS011;38286;51.156;17.038;2023-04-06T06:27:45;77.10;;;33.08;;
52354;SDS011;38286;51.156;17.038;2023-04-06T06:30:11;65.82;;;31.77;;
52354;SDS011;38286;51.156;17.038;2023-04-06T06:32:37;63.83;;;30.40;;
52354;SDS011;38286;51.156;17.038;2023-04-06T06:35:03;62.92;;;28.92;;
52354;SDS011;38286;51.156;17.038;2023-04-06T06:37:30;57.67;;;29.50;;
52354;SDS011;38286;51.156;17.038;2023-04-06T06:39:55;60.22;;;28.40;;
52354;SDS011;38286;51.156;17.038;2023-04-06T06:42:21;58.67;;;28.33;;
52354;SDS011;38286;51.156;17.038;2023-04-06T06:44:47;56.67;;;27.45;;
52354;SDS011;38286;51.156;17.038;2023-04-06T06:47:13;52.90;;;27.73;;
52354;SDS011;38286;51.156;17.038;2023-04-06T06:49:40;55.10;;;28.17;;
52354;SDS011;38286;51.156;17.038;2023-04-06T06:52:06;50.83;;;26.52;;
52354;SDS011;38286;51.156;17.038;2023-04-06T06:54:32;65.55;;;30.58;;
52354;SDS011;38286;51.156;17.038;2023-04-06T06:56:58;56.80;;;29.40;;
52354;SDS011;38286;51.156;17.038;2023-04-06T06:59:25;54.55;;;27.83;;
52354;SDS011;38286;51.156;17.038;2023-04-06T07:01:51;59.08;;;29.60;;
52354;SDS011;38286;51.156;17.038;2023-04-06T07:04:17;53.75;;;27.52;;
52354;SDS011;38286;51.156;17.038;2023-04-06T07:06:43;49.58;;;26.45;;
52354;SDS011;38286;51.156;17.038;2023-04-06T07:09:09;42.00;;;23.23;;
52354;SDS011;38286;51.156;17.038;2023-04-06T07:11:35;42.33;;;21.73;;
52354;SDS011;38286;51.156;17.038;2023-04-06T07:14:01;37.53;;;21.13;;
52354;SDS011;38286;51.156;17.038;2023-04-06T07:16:27;35.88;;;21.15;;
52354;SDS011;38286;51.156;17.038;2023-04-06T07:18:53;37.95;;;21.50;;
52354;SDS011;38286;51.156;17.038;2023-04-06T07:21:19;33.22;;;19.88;;
52354;SDS011;38286;51.156;17.038;2023-04-06T07:23:45;39.05;;;21.30;;
52354;SDS011;38286;51.156;17.038;2023-04-06T07:26:13;37.45;;;21.42;;
52354;SDS011;38286;51.156;17.038;2023-04-06T07:28:39;37.40;;;21.20;;
52354;SDS011;38286;51.156;17.038;2023-04-06T07:31:06;32.30;;;19.23;;
52354;SDS011;38286;51.156;17.038;2023-04-06T07:33:32;32.20;;;19.98;;
52354;SDS011;38286;51.156;17.038;2023-04-06T07:35:58;29.10;;;17.88;;
52354;SDS011;38286;51.156;17.038;2023-04-06T07:38:24;31.05;;;18.63;;
52354;SDS011;38286;51.156;17.038;2023-04-06T07:40:51;28.58;;;17.95;;
52354;SDS011;38286;51.156;17.038;2023-04-06T07:43:16;28.58;;;16.48;;
52354;SDS011;38286;51.156;17.038;2023-04-06T07:45:43;28.63;;;16.98;;
52354;SDS011;38286;51.156;17.038;2023-04-06T07:48:09;24.77;;;15.82;;
52354;SDS011;38286;51.156;17.038;2023-04-06T07:50:35;24.45;;;14.45;;
52354;SDS011;38286;51.156;17.038;2023-04-06T07:53:01;23.70;;;14.20;;
52354;SDS011;38286;51.156;17.038;2023-04-06T07:55:28;25.67;;;14.57;;
52354;SDS011;38286;51.156;17.038;2023-04-06T07:57:54;28.40;;;16.33;;
52354;SDS011;38286;51.156;17.038;2023-04-06T08:00:20;30.02;;;16.77;;
52354;SDS011;38286;51.156;17.038;2023-04-06T08:02:46;27.50;;;16.50;;
52354;SDS011;38286;51.156;17.038;2023-04-06T08:05:12;21.85;;;12.50;;
52354;SDS011;38286;51.156;17.038;2023-04-06T08:07:38;21.75;;;13.43;;
52354;SDS011;38286;51.156;17.038;2023-04-06T08:10:05;24.77;;;13.52;;
52354;SDS011;38286;51.156;17.038;2023-04-06T08:12:32;21.77;;;12.13;;
52354;SDS011;38286;51.156;17.038;2023-04-06T08:14:58;20.40;;;12.85;;
52354;SDS011;38286;51.156;17.038;2023-04-06T08:17:24;19.52;;;11.90;;
52354;SDS011;38286;51.156;17.038;2023-04-06T08:19:53;23.77;;;13.52;;
52354;SDS011;38286;51.156;17.038;2023-04-06T08:22:18;20.80;;;11.90;;
52354;SDS011;38286;51.156;17.038;2023-04-06T08:24:45;19.65;;;10.95;;
52354;SDS011;38286;51.156;17.038;2023-04-06T08:27:10;22.20;;;11.98;;
52354;SDS011;38286;51.156;17.038;2023-04-06T08:29:36;24.25;;;13.60;;
52354;SDS011;38286;51.156;17.038;2023-04-06T08:32:02;28.13;;;14.23;;
52354;SDS011;38286;51.156;17.038;2023-04-06T08:34:31;26.58;;;13.45;;
52354;SDS011;38286;51.156;17.038;2023-04-06T08:36:58;24.85;;;13.77;;
52354;SDS011;38286;51.156;17.038;2023-04-06T08:39:24;23.02;;;12.18;;
52354;SDS011;38286;51.156;17.038;2023-04-06T08:41:51;19.50;;;10.38;;
52354;SDS011;38286;51.156;17.038;2023-04-06T08:44:18;18.10;;;9.70;;
52354;SDS011;38286;51.156;17.038;2023-04-06T08:46:44;17.83;;;10.57;;
52354;SDS011;38286;51.156;17.038;2023-04-06T08:49:10;19.42;;;10.65;;
52354;SDS011;38286;51.156;17.038;2023-04-06T08:51:36;19.00;;;10.43;;
52354;SDS011;38286;51.156;17.038;2023-04-06T08:54:04;17.92;;;10.20;;
52354;SDS011;38286;51.156;17.038;2023-04-06T08:56:30;15.70;;;9.63;;
52354;SDS011;38286;51.156;17.038;2023-04-06T08:58:56;16.42;;;8.68;;
52354;SDS011;38286;51.156;17.038;2023-04-06T09:01:23;14.57;;;8.75;;
52354;SDS011;38286;51.156;17.038;2023-04-06T09:03:52;15.45;;;8.82;;
52354;SDS011;38286;51.156;17.038;2023-04-06T09:06:22;15.10;;;9.35;;
52354;SDS011;38286;51.156;17.038;2023-04-06T09:08:48;15.20;;;9.23;;
52354;SDS011;38286;51.156;17.038;2023-04-06T09:11:14;15.38;;;9.55;;
52354;SDS011;38286;51.156;17.038;2023-04-06T09:13:58;13.48;;;8.73;;
52354;SDS011;38286;51.156;17.038;2023-04-06T09:16:24;14.25;;;9.27;;
52354;SDS011;38286;51.156;17.038;2023-04-06T09:18:51;13.63;;;7.88;;
52354;SDS011;38286;51.156;17.038;2023-04-06T09:21:17;12.50;;;7.22;;
52354;SDS011;38286;51.156;17.038;2023-04-06T09:23:45;11.07;;;6.97;;
52354;SDS011;38286;51.156;17.038;2023-04-06T09:26:12;9.23;;;6.20;;
52354;SDS011;38286;51.156;17.038;2023-04-06T09:28:53;10.98;;;7.03;;
52354;SDS011;38286;51.156;17.038;2023-04-06T09:31:24;11.73;;;7.70;;
52354;SDS011;38286;51.156;17.038;2023-04-06T09:33:52;10.48;;;6.78;;
52354;SDS011;38286;51.156;17.038;2023-04-06T09:36:19;11.70;;;7.20;;
52354;SDS011;38286;51.156;17.038;2023-04-06T09:38:52;10.27;;;6.63;;
52354;SDS011;38286;51.156;17.038;2023-04-06T09:44:06;10.20;;;6.70;;
52354;SDS011;38286;51.156;17.038;2023-04-06T09:49:02;11.02;;;7.40;;
52354;SDS011;38286;51.156;17.038;2023-04-06T09:51:30;12.23;;;7.30;;
52354;SDS011;38286;51.156;17.038;2023-04-06T09:53:57;14.13;;;7.15;;
52354;SDS011;38286;51.156;17.038;2023-04-06T09:57:04;12.85;;;7.55;;
52354;SDS011;38286;51.156;17.038;2023-04-06T09:59:26;10.15;;;6.47;;
52354;SDS011;38286;51.156;17.038;2023-04-06T10:02:26;10.50;;;6.50;;
52354;SDS011;38286;51.156;17.038;2023-04-06T10:04:56;9.68;;;5.80;;
52354;SDS011;38286;51.156;17.038;2023-04-06T10:07:26;9.20;;;5.60;;
52354;SDS011;38286;51.156;17.038;2023-04-06T10:09:52;8.18;;;5.57;;
52354;SDS011;38286;51.156;17.038;2023-04-06T10:12:18;8.68;;;5.88;;
52354;SDS011;38286;51.156;17.038;2023-04-06T10:14:45;7.80;;;5.40;;
52354;SDS011;38286;51.156;17.038;2023-04-06T10:17:11;8.25;;;5.05;;
52354;SDS011;38286;51.156;17.038;2023-04-06T10:19:49;7.20;;;4.85;;
52354;SDS011;38286;51.156;17.038;2023-04-06T10:22:29;7.15;;;5.22;;
52354;SDS011;38286;51.156;17.038;2023-04-06T10:25:01;9.30;;;5.53;;
52354;SDS011;38286;51.156;17.038;2023-04-06T10:27:27;6.97;;;4.90;;
52354;SDS011;38286;51.156;17.038;2023-04-06T10:30:00;7.60;;;5.00;;
52354;SDS011;38286;51.156;17.038;2023-04-06T10:32:34;9.18;;;4.95;;
52354;SDS011;38286;51.156;17.038;2023-04-06T10:35:08;6.75;;;5.22;;
52354;SDS011;38286;51.156;17.038;2023-04-06T10:37:48;8.80;;;4.85;;
52354;SDS011;38286;51.156;17.038;2023-04-06T10:42:50;7.43;;;5.32;;
52354;SDS011;38286;51.156;17.038;2023-04-06T10:45:24;10.43;;;5.95;;
52354;SDS011;38286;51.156;17.038;2023-04-06T10:47:54;8.07;;;5.38;;
52354;SDS011;38286;51.156;17.038;2023-04-06T10:50:21;7.55;;;5.03;;
52354;SDS011;38286;51.156;17.038;2023-04-06T10:52:58;7.45;;;4.97;;
52354;SDS011;38286;51.156;17.038;2023-04-06T10:55:25;7.35;;;5.65;;
52354;SDS011;38286;51.156;17.038;2023-04-06T10:57:53;10.85;;;5.80;;
52354;SDS011;38286;51.156;17.038;2023-04-06T11:00:19;7.72;;;5.43;;
52354;SDS011;38286;51.156;17.038;2023-04-06T11:02:45;9.32;;;5.70;;
52354;SDS011;38286;51.156;17.038;2023-04-06T11:05:13;7.53;;;5.35;;
52354;SDS011;38286;51.156;17.038;2023-04-06T11:07:39;7.95;;;5.90;;
52354;SDS011;38286;51.156;17.038;2023-04-06T11:10:06;9.30;;;6.50;;
52354;SDS011;38286;51.156;17.038;2023-04-06T11:12:32;8.32;;;5.82;;
52354;SDS011;38286;51.156;17.038;2023-04-06T11:15:00;8.90;;;5.63;;
52354;SDS011;38286;51.156;17.038;2023-04-06T11:17:31;8.73;;;5.80;;
52354;SDS011;38286;51.156;17.038;2023-04-06T11:19:59;8.30;;;6.00;;
52354;SDS011;38286;51.156;17.038;2023-04-06T11:22:25;8.68;;;5.90;;
52354;SDS011;38286;51.156;17.038;2023-04-06T11:24:52;8.02;;;5.28;;
52354;SDS011;38286;51.156;17.038;2023-04-06T11:27:19;7.60;;;5.38;;
52354;SDS011;38286;51.156;17.038;2023-04-06T11:29:46;6.82;;;5.40;;
52354;SDS011;38286;51.156;17.038;2023-04-06T11:32:19;10.38;;;5.93;;
52354;SDS011;38286;51.156;17.038;2023-04-06T11:34:46;11.65;;;6.03;;
52354;SDS011;38286;51.156;17.038;2023-04-06T11:37:13;9.10;;;5.60;;
52354;SDS011;38286;51.156;17.038;2023-04-06T11:39:40;8.10;;;5.82;;
52354;SDS011;38286;51.156;17.038;2023-04-06T11:42:23;11.65;;;6.75;;
52354;SDS011;38286;51.156;17.038;2023-04-06T11:44:51;8.98;;;6.55;;
52354;SDS011;38286;51.156;17.038;2023-04-06T11:47:18;10.32;;;7.25;;
52354;SDS011;38286;51.156;17.038;2023-04-06T11:49:44;9.05;;;6.45;;
52354;SDS011;38286;51.156;17.038;2023-04-06T11:52:23;11.07;;;7.20;;
52354;SDS011;38286;51.156;17.038;2023-04-06T11:54:51;9.00;;;6.88;;
52354;SDS011;38286;51.156;17.038;2023-04-06T11:57:18;9.93;;;7.18;;
52354;SDS011;38286;51.156;17.038;2023-04-06T11:59:47;9.10;;;6.72;;
52354;SDS011;38286;51.156;17.038;2023-04-06T12:02:12;14.35;;;7.38;;
52354;SDS011;38286;51.156;17.038;2023-04-06T12:04:39;16.90;;;6.90;;
52354;SDS011;38286;51.156;17.038;2023-04-06T12:07:05;10.23;;;6.93;;
52354;SDS011;38286;51.156;17.038;2023-04-06T12:09:31;8.48;;;6.80;;
52354;SDS011;38286;51.156;17.038;2023-04-06T12:11:57;13.25;;;7.07;;
52354;SDS011;38286;51.156;17.038;2023-04-06T12:14:23;10.73;;;6.97;;
52354;SDS011;38286;51.156;17.038;2023-04-06T12:16:49;8.77;;;6.80;;
52354;SDS011;38286;51.156;17.038;2023-04-06T12:19:15;8.25;;;6.82;;
52354;SDS011;38286;51.156;17.038;2023-04-06T12:21:41;9.52;;;6.35;;
52354;SDS011;38286;51.156;17.038;2023-04-06T12:24:08;8.20;;;6.70;;
52354;SDS011;38286;51.156;17.038;2023-04-06T12:26:34;8.13;;;5.95;;
52354;SDS011;38286;51.156;17.038;2023-04-06T12:29:00;11.30;;;6.80;;
52354;SDS011;38286;51.156;17.038;2023-04-06T12:31:32;9.52;;;5.97;;
52354;SDS011;38286;51.156;17.038;2023-04-06T12:34:00;8.07;;;6.28;;
52354;SDS011;38286;51.156;17.038;2023-04-06T12:36:28;9.52;;;6.78;;
52354;SDS011;38286;51.156;17.038;2023-04-06T12:38:55;7.78;;;5.95;;
52354;SDS011;38286;51.156;17.038;2023-04-06T12:41:21;8.18;;;5.82;;
52354;SDS011;38286;51.156;17.038;2023-04-06T12:43:48;8.73;;;5.97;;
52354;SDS011;38286;51.156;17.038;2023-04-06T12:46:14;7.07;;;5.47;;
52354;SDS011;38286;51.156;17.038;2023-04-06T12:48:41;7.38;;;5.45;;
52354;SDS011;38286;51.156;17.038;2023-04-06T12:51:07;8.90;;;5.70;;
52354;SDS011;38286;51.156;17.038;2023-04-06T12:53:33;7.10;;;5.55;;
52354;SDS011;38286;51.156;17.038;2023-04-06T12:56:00;10.60;;;6.18;;
52354;SDS011;38286;51.156;17.038;2023-04-06T12:58:27;7.35;;;5.53;;
52354;SDS011;38286;51.156;17.038;2023-04-06T13:00:54;8.23;;;4.90;;
52354;SDS011;38286;51.156;17.038;2023-04-06T13:03:21;8.13;;;5.53;;
52354;SDS011;38286;51.156;17.038;2023-04-06T13:05:48;7.25;;;5.10;;
52354;SDS011;38286;51.156;17.038;2023-04-06T13:08:15;6.90;;;5.57;;
52354;SDS011;38286;51.156;17.038;2023-04-06T13:10:44;7.18;;;5.03;;
52354;SDS011;38286;51.156;17.038;2023-04-06T13:13:17;6.13;;;4.85;;
52354;SDS011;38286;51.156;17.038;2023-04-06T13:15:43;7.00;;;4.97;;
52354;SDS011;38286;51.156;17.038;2023-04-06T13:18:10;7.63;;;4.85;;
52354;SDS011;38286;51.156;17.038;2023-04-06T13:20:36;7.30;;;5.38;;
52354;SDS011;38286;51.156;17.038;2023-04-06T13:23:02;10.48;;;7.45;;
52354;SDS011;38286;51.156;17.038;2023-04-06T13:25:29;7.53;;;5.40;;
52354;SDS011;38286;51.156;17.038;2023-04-06T13:27:56;9.52;;;5.28;;
52354;SDS011;38286;51.156;17.038;2023-04-06T13:30:21;5.90;;;5.00;;
52354;SDS011;38286;51.156;17.038;2023-04-06T13:32:48;7.00;;;5.70;;
52354;SDS011;38286;51.156;17.038;2023-04-06T13:35:13;7.95;;;6.05;;
52354;SDS011;38286;51.156;17.038;2023-04-06T13:37:40;10.23;;;6.63;;
52354;SDS011;38286;51.156;17.038;2023-04-06T13:40:06;9.32;;;6.60;;
52354;SDS011;38286;51.156;17.038;2023-04-06T13:42:33;7.93;;;6.43;;
52354;SDS011;38286;51.156;17.038;2023-04-06T13:45:00;10.77;;;7.05;;
52354;SDS011;38286;51.156;17.038;2023-04-06T13:47:27;9.95;;;6.60;;
52354;SDS011;38286;51.156;17.038;2023-04-06T13:49:53;10.88;;;6.78;;
52354;SDS011;38286;51.156;17.038;2023-04-06T13:52:20;11.55;;;7.20;;
52354;SDS011;38286;51.156;17.038;2023-04-06T13:54:46;10.18;;;6.43;;
52354;SDS011;38286;51.156;17.038;2023-04-06T13:57:12;10.25;;;6.57;;
52354;SDS011;38286;51.156;17.038;2023-04-06T13:59:38;7.63;;;6.60;;
52354;SDS011;38286;51.156;17.038;2023-04-06T14:02:06;9.68;;;6.57;;
52354;SDS011;38286;51.156;17.038;2023-04-06T14:04:33;8.93;;;6.53;;
52354;SDS011;38286;51.156;17.038;2023-04-06T14:07:00;8.65;;;6.45;;
52354;SDS011;38286;51.156;17.038;2023-04-06T14:09:27;10.75;;;6.68;;
52354;SDS011;38286;51.156;17.038;2023-04-06T14:11:53;9.88;;;7.13;;
52354;SDS011;38286;51.156;17.038;2023-04-06T14:14:20;10.10;;;7.80;;
52354;SDS011;38286;51.156;17.038;2023-04-06T14:16:46;9.93;;;7.45;;
52354;SDS011;38286;51.156;17.038;2023-04-06T14:19:14;9.45;;;7.20;;
52354;SDS011;38286;51.156;17.038;2023-04-06T14:21:41;8.98;;;6.68;;
52354;SDS011;38286;51.156;17.038;2023-04-06T14:24:09;12.48;;;7.47;;
52354;SDS011;38286;51.156;17.038;2023-04-06T14:26:35;11.63;;;6.88;;
52354;SDS011;38286;51.156;17.038;2023-04-06T14:29:05;10.77;;;7.30;;
52354;SDS011;38286;51.156;17.038;2023-04-06T14:31:32;9.05;;;6.28;;
52354;SDS011;38286;51.156;17.038;2023-04-06T14:34:00;9.20;;;6.45;;
52354;SDS011;38286;51.156;17.038;2023-04-06T14:36:28;12.05;;;6.75;;
52354;SDS011;38286;51.156;17.038;2023-04-06T14:38:56;12.35;;;6.65;;
52354;SDS011;38286;51.156;17.038;2023-04-06T14:41:23;8.93;;;6.45;;
52354;SDS011;38286;51.156;17.038;2023-04-06T14:43:50;9.20;;;6.47;;
52354;SDS011;38286;51.156;17.038;2023-04-06T14:46:18;7.90;;;6.43;;
52354;SDS011;38286;51.156;17.038;2023-04-06T14:48:44;11.10;;;6.03;;
52354;SDS011;38286;51.156;17.038;2023-04-06T14:51:11;8.80;;;6.22;;
52354;SDS011;38286;51.156;17.038;2023-04-06T14:53:37;8.82;;;6.32;;
52354;SDS011;38286;51.156;17.038;2023-04-06T14:56:03;8.30;;;6.13;;
52354;SDS011;38286;51.156;17.038;2023-04-06T14:58:29;11.02;;;6.40;;
52354;SDS011;38286;51.156;17.038;2023-04-06T15:00:56;10.18;;;6.50;;
52354;SDS011;38286;51.156;17.038;2023-04-06T15:03:26;9.93;;;6.05;;
52354;SDS011;38286;51.156;17.038;2023-04-06T15:05:53;11.55;;;7.43;;
52354;SDS011;38286;51.156;17.038;2023-04-06T15:08:19;8.95;;;6.53;;
52354;SDS011;38286;51.156;17.038;2023-04-06T15:10:47;12.90;;;7.15;;
52354;SDS011;38286;51.156;17.038;2023-04-06T15:13:13;11.27;;;6.47;;
52354;SDS011;38286;51.156;17.038;2023-04-06T15:15:40;11.70;;;7.00;;
52354;SDS011;38286;51.156;17.038;2023-04-06T15:18:06;10.13;;;6.55;;
52354;SDS011;38286;51.156;17.038;2023-04-06T15:20:32;10.63;;;6.78;;
52354;SDS011;38286;51.156;17.038;2023-04-06T15:22:58;8.98;;;6.53;;
52354;SDS011;38286;51.156;17.038;2023-04-06T15:25:24;15.63;;;7.78;;
52354;SDS011;38286;51.156;17.038;2023-04-06T15:27:50;10.95;;;6.75;;
52354;SDS011;38286;51.156;17.038;2023-04-06T15:30:16;10.73;;;7.00;;
52354;SDS011;38286;51.156;17.038;2023-04-06T15:32:46;12.38;;;7.55;;
52354;SDS011;38286;51.156;17.038;2023-04-06T15:35:18;10.48;;;6.90;;
52354;SDS011;38286;51.156;17.038;2023-04-06T15:37:44;11.13;;;7.30;;
52354;SDS011;38286;51.156;17.038;2023-04-06T15:40:11;12.45;;;7.63;;
52354;SDS011;38286;51.156;17.038;2023-04-06T15:42:39;13.27;;;7.53;;
52354;SDS011;38286;51.156;17.038;2023-04-06T15:45:06;12.70;;;8.02;;
52354;SDS011;38286;51.156;17.038;2023-04-06T15:47:32;14.20;;;7.18;;
52354;SDS011;38286;51.156;17.038;2023-04-06T15:49:58;12.32;;;7.35;;
52354;SDS011;38286;51.156;17.038;2023-04-06T15:52:24;11.48;;;7.55;;
52354;SDS011;38286;51.156;17.038;2023-04-06T15:54:50;13.15;;;7.60;;
52354;SDS011;38286;51.156;17.038;2023-04-06T15:57:16;11.77;;;7.53;;
52354;SDS011;38286;51.156;17.038;2023-04-06T15:59:42;14.35;;;7.63;;
52354;SDS011;38286;51.156;17.038;2023-04-06T16:02:09;12.60;;;7.72;;
52354;SDS011;38286;51.156;17.038;2023-04-06T16:04:35;15.00;;;8.15;;
52354;SDS011;38286;51.156;17.038;2023-04-06T16:07:01;12.85;;;7.13;;
52354;SDS011;38286;51.156;17.038;2023-04-06T16:09:27;10.88;;;7.43;;
52354;SDS011;38286;51.156;17.038;2023-04-06T16:11:53;14.68;;;7.97;;
52354;SDS011;38286;51.156;17.038;2023-04-06T16:14:20;17.63;;;8.25;;
52354;SDS011;38286;51.156;17.038;2023-04-06T16:16:46;13.88;;;7.50;;
52354;SDS011;38286;51.156;17.038;2023-04-06T16:19:12;14.93;;;8.43;;
52354;SDS011;38286;51.156;17.038;2023-04-06T16:21:38;16.27;;;8.10;;
52354;SDS011;38286;51.156;17.038;2023-04-06T16:24:04;17.25;;;9.27;;
52354;SDS011;38286;51.156;17.038;2023-04-06T16:26:31;17.25;;;9.18;;
52354;SDS011;38286;51.156;17.038;2023-04-06T16:28:57;13.35;;;8.32;;
52354;SDS011;38286;51.156;17.038;2023-04-06T16:31:23;15.27;;;8.63;;
52354;SDS011;38286;51.156;17.038;2023-04-06T16:33:51;13.73;;;8.15;;
52354;SDS011;38286;51.156;17.038;2023-04-06T16:36:21;16.50;;;8.10;;
52354;SDS011;38286;51.156;17.038;2023-04-06T16:38:48;13.95;;;8.02;;
52354;SDS011;38286;51.156;17.038;2023-04-06T16:41:14;13.25;;;8.30;;
52354;SDS011;38286;51.156;17.038;2023-04-06T16:43:40;12.02;;;8.25;;
52354;SDS011;38286;51.156;17.038;2023-04-06T16:46:06;15.30;;;8.80;;
52354;SDS011;38286;51.156;17.038;2023-04-06T16:48:33;13.23;;;8.68;;